Terminal Aerodrome Forecast
Issued by NWS Sterling, VA

Current Version | Previous Version | Text Only | Print | Product List | Glossary Off
Versions: 1 2 3 4 5 6 7 8 9 10 11 12 13 14 15 16 17 18

162
FTUS41 KLWX 251733
TAFDCA
TAF
KDCA 251733Z 2518/2618 06015G27KT 2SM -RA OVC008
     FM252100 05011G18KT 5SM BR OVC008
     FM260000 04010KT 5SM -RA OVC008
     FM260400 01007KT 5SM BR OVC008
     FM261200 34006KT P6SM OVC025=

USA.gov is the U.S. government's official web portal to all federal, state and local government web resources and services.